createdAt,value
2022-12-27T00:01:26.916Z,78.76
2022-12-27T00:06:30.962Z,78.35
2022-12-27T00:11:33.829Z,78.31
2022-12-27T00:16:38.451Z,78.14
2022-12-27T00:21:41.268Z,77.78
2022-12-27T00:26:44.114Z,77.25
2022-12-27T00:31:48.269Z,78.06
2022-12-27T00:36:51.061Z,77.93
2022-12-27T00:41:53.866Z,77.33
2022-12-27T00:46:58.016Z,77.45
2022-12-27T00:52:00.762Z,76.25
2022-12-27T00:57:03.538Z,75.21
2022-12-27T01:02:07.718Z,76.24
2022-12-27T01:07:10.583Z,75.16
2022-12-27T01:12:13.320Z,75.63
2022-12-27T01:17:17.614Z,75.42
2022-12-27T01:22:21.383Z,75.32
2022-12-27T01:27:24.190Z,74.66
2022-12-27T01:32:28.320Z,75.22
2022-12-27T01:37:31.513Z,75.07
2022-12-27T01:42:51.978Z,75.62
2022-12-27T01:48:02.171Z,75.48
2022-12-27T01:53:10.831Z,76.56
2022-12-27T01:58:18.842Z,74.79
2022-12-27T02:03:26.421Z,75.55
2022-12-27T02:08:37.477Z,75.53
2022-12-27T02:13:44.309Z,76.55
2022-12-27T02:18:48.576Z,76.83
2022-12-27T02:24:16.355Z,76.89
2022-12-27T02:29:35.444Z,77.86
2022-12-27T02:34:49.763Z,77.33
2022-12-27T02:39:53.895Z,77.79
2022-12-27T02:45:15.750Z,77.63
2022-12-27T02:50:36.502Z,76.61
2022-12-27T02:56:16.204Z,77.26
2022-12-27T03:01:47.280Z,77.62
2022-12-27T03:07:16.010Z,77.56
2022-12-27T03:12:43.803Z,76.51
2022-12-27T03:17:55.297Z,77.90
2022-12-27T03:23:19.161Z,77.39
2022-12-27T03:28:45.905Z,76.71
2022-12-27T03:33:51.598Z,76.85
2022-12-27T03:39:04.176Z,78.91
2022-12-27T03:44:24.140Z,77.70
2022-12-27T03:49:33.121Z,77.92
2022-12-27T03:54:38.808Z,77.90
2022-12-27T03:59:41.947Z,78.68
2022-12-27T04:04:46.268Z,78.07
2022-12-27T04:10:06.677Z,78.44
2022-12-27T04:15:27.980Z,78.49
2022-12-27T04:20:51.166Z,79.45
2022-12-27T04:26:11.383Z,78.53
2022-12-27T04:31:31.672Z,79.04
2022-12-27T04:36:35.986Z,79.51
2022-12-27T04:41:56.446Z,78.78
2022-12-27T04:47:16.841Z,78.77
2022-12-27T04:52:41.177Z,79.52
2022-12-27T04:57:44.008Z,79.48
2022-12-27T05:02:46.891Z,81.11
2022-12-27T05:08:09.425Z,82.16
2022-12-27T05:13:30.650Z,81.63
2022-12-27T05:18:33.403Z,81.37
2022-12-27T05:24:00.227Z,80.75
2022-12-27T05:29:08.149Z,80.80
2022-12-27T05:34:10.905Z,81.03
2022-12-27T05:39:14.997Z,81.95
2022-12-27T05:44:17.719Z,81.63
2022-12-27T05:49:20.659Z,81.95
2022-12-27T05:54:24.766Z,80.53
2022-12-27T05:59:27.555Z,82.54
2022-12-27T06:04:30.297Z,80.56
2022-12-27T06:09:34.392Z,81.44
2022-12-27T06:14:37.170Z,80.80
2022-12-27T06:19:39.960Z,81.54
2022-12-27T06:24:44.110Z,82.39
2022-12-27T06:29:46.904Z,80.63
2022-12-27T06:34:49.643Z,80.90
2022-12-27T06:39:53.759Z,81.35
2022-12-27T06:44:56.511Z,81.42
2022-12-27T06:49:59.268Z,82.27
2022-12-27T06:55:03.394Z,81.41
2022-12-27T07:00:07.330Z,82.03
2022-12-27T07:05:10.423Z,81.54
2022-12-27T07:10:14.583Z,81.67
2022-12-27T07:15:17.447Z,81.36
2022-12-27T07:20:20.211Z,80.53
2022-12-27T07:25:24.366Z,79.52
2022-12-27T07:30:27.212Z,79.90
2022-12-27T07:35:29.988Z,80.41
2022-12-27T07:40:37.296Z,79.62
2022-12-27T07:45:40.112Z,79.20
2022-12-27T07:50:42.878Z,79.76
2022-12-27T07:55:47.329Z,79.48
2022-12-27T08:00:52.420Z,78.56
2022-12-27T08:05:55.383Z,79.80
2022-12-27T08:11:05.251Z,79.25
2022-12-27T08:16:11.551Z,79.07
2022-12-27T08:21:14.627Z,79.47
2022-12-27T08:26:18.739Z,78.08
2022-12-27T08:31:21.579Z,80.01
2022-12-27T08:41:48.296Z,78.62
2022-12-27T08:46:51.020Z,77.96
2022-12-27T08:51:53.747Z,78.41
2022-12-27T08:56:57.848Z,78.59
2022-12-27T09:02:00.732Z,78.87
2022-12-27T09:07:03.695Z,78.32
2022-12-27T09:12:09.482Z,79.31
2022-12-27T09:17:12.355Z,79.03
2022-12-27T09:22:15.077Z,79.36
2022-12-27T09:27:19.124Z,79.09
2022-12-27T09:32:21.832Z,79.20
2022-12-27T09:37:24.614Z,78.85
2022-12-27T09:42:59.001Z,78.69
2022-12-27T09:48:13.673Z,76.92
2022-12-27T09:53:21.499Z,78.27
2022-12-27T09:58:38.065Z,78.33
2022-12-27T10:03:40.902Z,78.05
2022-12-27T10:08:52.295Z,78.23
2022-12-27T10:14:02.636Z,77.98
2022-12-27T10:19:20.828Z,77.90
2022-12-27T10:24:27.613Z,76.50
2022-12-27T10:29:34.097Z,77.91
2022-12-27T10:34:38.123Z,78.09
2022-12-27T10:39:41.213Z,77.06
2022-12-27T10:44:45.382Z,77.30
2022-12-27T10:50:05.536Z,76.05
2022-12-27T10:55:35.714Z,74.51
2022-12-27T11:00:39.900Z,73.61
2022-12-27T11:05:42.819Z,72.51
2022-12-27T11:10:45.576Z,72.13
2022-12-27T11:15:59.017Z,72.05
2022-12-27T11:21:02.791Z,73.44
2022-12-27T11:26:07.406Z,74.26
2022-12-27T11:31:15.165Z,74.42
2022-12-27T11:36:27.256Z,74.96
2022-12-27T11:41:38.044Z,72.95
2022-12-27T11:46:46.343Z,73.45
2022-12-27T11:52:32.187Z,73.75
2022-12-27T11:57:57.962Z,74.54
2022-12-27T12:03:30.489Z,74.74
2022-12-27T12:09:06.875Z,73.55
2022-12-27T12:14:35.799Z,71.41
2022-12-27T12:20:14.837Z,71.59
2022-12-27T12:25:53.277Z,72.60
2022-12-27T12:31:12.335Z,71.47
2022-12-27T12:36:33.073Z,72.26
2022-12-27T12:42:01.666Z,71.56
2022-12-27T12:47:16.579Z,71.57
2022-12-27T12:52:32.338Z,71.74
2022-12-27T12:57:47.756Z,71.35
2022-12-27T13:03:16.111Z,72.55
2022-12-27T13:08:27.300Z,72.61
2022-12-27T13:13:39.244Z,71.65
2022-12-27T13:18:52.312Z,71.64
2022-12-27T13:24:10.291Z,71.67
2022-12-27T13:29:34.768Z,71.90
2022-12-27T13:34:52.399Z,70.41
2022-12-27T13:40:19.156Z,70.21
2022-12-27T13:45:41.038Z,72.07
2022-12-27T13:51:09.082Z,73.21
2022-12-27T13:56:52.717Z,72.93
2022-12-27T14:02:07.973Z,71.04
2022-12-27T14:07:50.777Z,72.19
2022-12-27T14:13:02.580Z,72.00
2022-12-27T14:18:32.775Z,71.18
2022-12-27T14:23:49.488Z,71.77
2022-12-27T14:29:28.380Z,72.96
2022-12-27T14:34:59.586Z,72.12
2022-12-27T14:40:34.431Z,72.28
2022-12-27T14:46:17.235Z,72.95
2022-12-27T14:52:08.784Z,73.37
2022-12-27T14:57:25.270Z,73.34
2022-12-27T15:02:52.756Z,73.13
2022-12-27T15:08:16.558Z,72.47
2022-12-27T15:13:29.843Z,72.42
2022-12-27T15:18:53.057Z,72.92
2022-12-27T15:24:03.806Z,72.39
2022-12-27T15:29:22.402Z,73.43
2022-12-27T15:34:42.091Z,71.68
2022-12-27T15:39:49.648Z,71.90
2022-12-27T15:45:03.997Z,71.10
2022-12-27T15:50:35.600Z,71.01
2022-12-27T15:56:00.579Z,71.82
2022-12-27T16:01:30.620Z,71.97
2022-12-27T16:06:52.195Z,73.06
2022-12-27T16:12:05.003Z,73.20
2022-12-27T16:17:28.318Z,73.40
2022-12-27T16:22:37.535Z,74.47
2022-12-27T16:27:40.799Z,74.87
2022-12-27T16:32:49.834Z,75.49
2022-12-27T16:37:55.859Z,74.87
2022-12-27T16:43:31.720Z,75.44
2022-12-27T16:48:48.467Z,75.80
2022-12-27T16:54:04.902Z,74.93
2022-12-27T16:59:56.508Z,75.23
2022-12-27T17:05:00.794Z,74.69
2022-12-27T17:10:34.725Z,74.00
2022-12-27T17:15:49.385Z,74.15
2022-12-27T17:21:04.301Z,73.15
2022-12-27T17:26:27.758Z,73.51
2022-12-27T17:31:39.661Z,73.53
2022-12-27T17:36:52.810Z,72.68
2022-12-27T17:42:24.419Z,73.50
2022-12-27T17:47:41.366Z,72.82
2022-12-27T17:53:20.201Z,73.27
2022-12-27T17:58:24.555Z,72.22
2022-12-27T18:03:35.313Z,72.08
2022-12-27T18:08:38.873Z,71.25
2022-12-27T18:13:53.896Z,71.18
2022-12-27T18:18:59.854Z,72.12
2022-12-27T18:24:02.625Z,71.31
2022-12-27T18:29:11.423Z,71.38
2022-12-27T18:34:22.447Z,71.51
2022-12-27T18:39:29.908Z,70.72
2022-12-27T18:44:43.558Z,71.96
2022-12-27T18:49:46.653Z,70.47
2022-12-27T18:54:49.665Z,70.84
2022-12-27T19:00:05.144Z,71.20
2022-12-27T19:05:30.522Z,70.92
2022-12-27T19:10:34.078Z,70.12
2022-12-27T19:15:44.035Z,69.95
2022-12-27T19:20:55.246Z,69.00
2022-12-27T19:26:05.555Z,69.58
2022-12-27T19:31:19.349Z,69.63
2022-12-27T19:36:27.411Z,69.21
2022-12-27T19:41:31.672Z,68.74
2022-12-27T19:46:35.872Z,68.36
2022-12-27T19:51:39.031Z,68.75
2022-12-27T19:56:41.812Z,69.78
2022-12-27T20:01:46.499Z,69.38
2022-12-27T20:06:50.159Z,69.04
2022-12-27T20:11:53.126Z,69.38
2022-12-27T20:16:57.325Z,68.85
2022-12-27T20:22:00.685Z,69.65
2022-12-27T20:27:03.695Z,69.27
2022-12-27T20:32:08.049Z,69.36
2022-12-27T20:37:10.837Z,69.87
2022-12-27T20:42:13.558Z,69.58
2022-12-27T20:47:17.709Z,69.52
2022-12-27T20:52:24.413Z,70.01
2022-12-27T20:57:31.664Z,69.95
2022-12-27T21:02:36.194Z,69.70
2022-12-27T21:07:39.153Z,69.37
2022-12-27T21:12:41.894Z,70.15
2022-12-27T21:17:45.991Z,69.26
2022-12-27T21:22:48.795Z,69.50
2022-12-27T21:27:51.539Z,71.00
2022-12-27T21:32:55.672Z,70.78
2022-12-27T21:37:58.557Z,70.19
2022-12-27T21:43:01.542Z,69.62
2022-12-27T21:48:06.004Z,69.13
2022-12-27T21:53:08.773Z,70.03
2022-12-27T21:58:13.234Z,69.58
2022-12-27T22:03:17.571Z,69.25
2022-12-27T22:08:20.501Z,68.91
2022-12-27T22:13:23.512Z,69.31
2022-12-27T22:18:31.174Z,68.81
2022-12-27T22:23:34.736Z,68.90
2022-12-27T22:28:37.527Z,68.94
2022-12-27T22:33:42.023Z,68.84
2022-12-27T22:38:49.440Z,68.70
2022-12-27T22:43:54.453Z,69.01
2022-12-27T22:49:00.943Z,68.85
2022-12-27T22:54:05.162Z,69.16
2022-12-27T22:59:08.746Z,67.75
2022-12-27T23:04:14.662Z,68.79
2022-12-27T23:09:17.495Z,69.24
2022-12-27T23:14:20.309Z,68.62
2022-12-27T23:19:25.665Z,68.35
2022-12-27T23:24:28.405Z,68.16
2022-12-27T23:29:31.143Z,67.95
2022-12-27T23:34:35.286Z,68.50
2022-12-27T23:39:38.076Z,68.55
2022-12-27T23:44:40.847Z,67.57
2022-12-27T23:49:44.997Z,68.53
2022-12-27T23:54:47.757Z,67.80
2022-12-27T23:59:51.527Z,69.19
